sensor_id;sensor_type;location;lat;lon;timestamp;temperature;humidity
41985;DHT22;28319;48.116;10.818;2022-08-25T00:02:03;19.70;95.50
41985;DHT22;28319;48.116;10.818;2022-08-25T00:04:31;19.60;95.60
41985;DHT22;28319;48.116;10.818;2022-08-25T00:06:59;19.60;95.60
41985;DHT22;28319;48.116;10.818;2022-08-25T00:09:29;19.60;95.60
41985;DHT22;28319;48.116;10.818;2022-08-25T00:11:56;19.60;95.60
41985;DHT22;28319;48.116;10.818;2022-08-25T00:14:29;19.50;95.80
41985;DHT22;28319;48.116;10.818;2022-08-25T00:16:58;19.50;95.70
41985;DHT22;28319;48.116;10.818;2022-08-25T00:19:27;19.50;95.80
41985;DHT22;28319;48.116;10.818;2022-08-25T00:21:56;19.50;95.70
41985;DHT22;28319;48.116;10.818;2022-08-25T00:24:24;19.40;95.90
41985;DHT22;28319;48.116;10.818;2022-08-25T00:26:53;19.40;95.80
41985;DHT22;28319;48.116;10.818;2022-08-25T00:29:22;19.40;95.70
41985;DHT22;28319;48.116;10.818;2022-08-25T00:31:52;19.40;95.80
41985;DHT22;28319;48.116;10.818;2022-08-25T00:34:23;19.30;95.80
41985;DHT22;28319;48.116;10.818;2022-08-25T00:36:50;19.30;95.80
41985;DHT22;28319;48.116;10.818;2022-08-25T00:39:18;19.20;96.20
41985;DHT22;28319;48.116;10.818;2022-08-25T00:41:48;19.20;96.10
41985;DHT22;28319;48.116;10.818;2022-08-25T00:44:15;19.20;96.20
41985;DHT22;28319;48.116;10.818;2022-08-25T00:46:46;19.20;96.00
41985;DHT22;28319;48.116;10.818;2022-08-25T00:49:18;19.10;96.80
41985;DHT22;28319;48.116;10.818;2022-08-25T00:51:49;19.00;97.10
41985;DHT22;28319;48.116;10.818;2022-08-25T00:54:18;18.90;97.00
41985;DHT22;28319;48.116;10.818;2022-08-25T00:56:48;18.90;96.60
41985;DHT22;28319;48.116;10.818;2022-08-25T00:59:18;19.00;96.40
41985;DHT22;28319;48.116;10.818;2022-08-25T01:01:45;19.00;96.70
41985;DHT22;28319;48.116;10.818;2022-08-25T01:04:12;18.90;96.70
41985;DHT22;28319;48.116;10.818;2022-08-25T01:06:42;18.50;96.40
41985;DHT22;28319;48.116;10.818;2022-08-25T01:09:11;18.90;96.30
41985;DHT22;28319;48.116;10.818;2022-08-25T01:11:40;18.90;96.30
41985;DHT22;28319;48.116;10.818;2022-08-25T01:14:09;18.90;96.30
41985;DHT22;28319;48.116;10.818;2022-08-25T01:16:37;18.80;97.60
41985;DHT22;28319;48.116;10.818;2022-08-25T01:19:06;18.70;98.40
41985;DHT22;28319;48.116;10.818;2022-08-25T01:21:40;18.60;98.30
41985;DHT22;28319;48.116;10.818;2022-08-25T01:24:09;18.50;98.30
41985;DHT22;28319;48.116;10.818;2022-08-25T01:26:37;18.50;98.20
41985;DHT22;28319;48.116;10.818;2022-08-25T01:29:06;18.60;97.00
41985;DHT22;28319;48.116;10.818;2022-08-25T01:31:52;18.60;96.90
41985;DHT22;28319;48.116;10.818;2022-08-25T01:34:20;18.60;96.90
41985;DHT22;28319;48.116;10.818;2022-08-25T01:36:49;18.60;97.20
41985;DHT22;28319;48.116;10.818;2022-08-25T01:39:16;18.60;96.90
41985;DHT22;28319;48.116;10.818;2022-08-25T01:42:02;18.60;96.70
41985;DHT22;28319;48.116;10.818;2022-08-25T01:44:31;18.60;96.50
41985;DHT22;28319;48.116;10.818;2022-08-25T01:46:59;18.60;96.80
41985;DHT22;28319;48.116;10.818;2022-08-25T01:49:26;18.60;97.10
41985;DHT22;28319;48.116;10.818;2022-08-25T01:51:59;18.60;97.30
41985;DHT22;28319;48.116;10.818;2022-08-25T01:54:26;18.50;96.80
41985;DHT22;28319;48.116;10.818;2022-08-25T01:56:53;18.50;97.10
41985;DHT22;28319;48.116;10.818;2022-08-25T01:59:21;18.40;97.70
41985;DHT22;28319;48.116;10.818;2022-08-25T02:01:48;18.40;97.50
41985;DHT22;28319;48.116;10.818;2022-08-25T02:04:15;18.40;97.50
41985;DHT22;28319;48.116;10.818;2022-08-25T02:06:42;18.30;98.70
41985;DHT22;28319;48.116;10.818;2022-08-25T02:09:13;18.20;99.10
41985;DHT22;28319;48.116;10.818;2022-08-25T02:11:43;18.10;99.10
41985;DHT22;28319;48.116;10.818;2022-08-25T02:14:11;18.00;99.40
41985;DHT22;28319;48.116;10.818;2022-08-25T02:16:40;17.90;99.90
41985;DHT22;28319;48.116;10.818;2022-08-25T02:19:09;17.60;99.90
41985;DHT22;28319;48.116;10.818;2022-08-25T02:21:37;17.60;99.90
41985;DHT22;28319;48.116;10.818;2022-08-25T02:24:05;17.50;99.90
41985;DHT22;28319;48.116;10.818;2022-08-25T02:26:35;17.60;99.90
41985;DHT22;28319;48.116;10.818;2022-08-25T02:29:03;17.70;99.70
41985;DHT22;28319;48.116;10.818;2022-08-25T02:31:30;17.70;99.50
41985;DHT22;28319;48.116;10.818;2022-08-25T02:33:57;17.80;99.20
41985;DHT22;28319;48.116;10.818;2022-08-25T02:36:24;17.80;99.40
41985;DHT22;28319;48.116;10.818;2022-08-25T02:38:51;17.80;98.70
41985;DHT22;28319;48.116;10.818;2022-08-25T02:41:20;17.90;98.20
41985;DHT22;28319;48.116;10.818;2022-08-25T02:43:50;17.90;98.10
41985;DHT22;28319;48.116;10.818;2022-08-25T02:46:19;17.90;98.10
41985;DHT22;28319;48.116;10.818;2022-08-25T02:48:47;17.80;98.10
41985;DHT22;28319;48.116;10.818;2022-08-25T02:51:16;17.80;98.20
41985;DHT22;28319;48.116;10.818;2022-08-25T02:53:43;17.80;98.40
41985;DHT22;28319;48.116;10.818;2022-08-25T02:56:12;17.80;98.10
41985;DHT22;28319;48.116;10.818;2022-08-25T02:58:40;17.80;98.10
41985;DHT22;28319;48.116;10.818;2022-08-25T03:01:09;17.70;98.40
41985;DHT22;28319;48.116;10.818;2022-08-25T03:03:37;17.70;98.00
41985;DHT22;28319;48.116;10.818;2022-08-25T03:06:05;17.70;98.10
41985;DHT22;28319;48.116;10.818;2022-08-25T03:08:32;17.70;98.20
41985;DHT22;28319;48.116;10.818;2022-08-25T03:10:59;17.70;98.10
41985;DHT22;28319;48.116;10.818;2022-08-25T03:13:26;17.70;98.20
41985;DHT22;28319;48.116;10.818;2022-08-25T03:15:53;17.60;98.60
41985;DHT22;28319;48.116;10.818;2022-08-25T03:18:21;17.40;99.50
41985;DHT22;28319;48.116;10.818;2022-08-25T03:20:48;17.40;99.50
41985;DHT22;28319;48.116;10.818;2022-08-25T03:23:16;17.40;99.00
41985;DHT22;28319;48.116;10.818;2022-08-25T03:25:43;17.40;99.60
41985;DHT22;28319;48.116;10.818;2022-08-25T03:28:24;17.30;99.80
41985;DHT22;28319;48.116;10.818;2022-08-25T03:30:51;17.40;98.90
41985;DHT22;28319;48.116;10.818;2022-08-25T03:33:18;17.40;98.70
41985;DHT22;28319;48.116;10.818;2022-08-25T03:35:46;17.40;99.10
41985;DHT22;28319;48.116;10.818;2022-08-25T03:38:14;17.40;98.20
41985;DHT22;28319;48.116;10.818;2022-08-25T03:40:41;17.40;98.10
41985;DHT22;28319;48.116;10.818;2022-08-25T03:43:08;17.40;98.30
41985;DHT22;28319;48.116;10.818;2022-08-25T03:45:39;17.40;98.40
41985;DHT22;28319;48.116;10.818;2022-08-25T03:48:06;17.40;98.10
41985;DHT22;28319;48.116;10.818;2022-08-25T03:50:33;17.40;97.90
41985;DHT22;28319;48.116;10.818;2022-08-25T03:53:02;17.40;98.00
41985;DHT22;28319;48.116;10.818;2022-08-25T03:55:29;17.40;97.90
41985;DHT22;28319;48.116;10.818;2022-08-25T03:57:56;17.30;98.00
41985;DHT22;28319;48.116;10.818;2022-08-25T04:00:23;17.40;98.10
41985;DHT22;28319;48.116;10.818;2022-08-25T04:02:50;17.30;98.00
41985;DHT22;28319;48.116;10.818;2022-08-25T04:05:17;17.30;98.10
41985;DHT22;28319;48.116;10.818;2022-08-25T04:07:44;17.30;98.20
41985;DHT22;28319;48.116;10.818;2022-08-25T04:10:13;17.20;98.20
41985;DHT22;28319;48.116;10.818;2022-08-25T04:12:40;17.20;98.10
41985;DHT22;28319;48.116;10.818;2022-08-25T04:15:08;17.20;97.90
41985;DHT22;28319;48.116;10.818;2022-08-25T04:17:37;17.20;97.90
41985;DHT22;28319;48.116;10.818;2022-08-25T04:20:06;17.20;97.80
41985;DHT22;28319;48.116;10.818;2022-08-25T04:22:33;17.10;98.30
41985;DHT22;28319;48.116;10.818;2022-08-25T04:25:00;17.10;97.90
41985;DHT22;28319;48.116;10.818;2022-08-25T04:27:29;17.10;97.80
41985;DHT22;28319;48.116;10.818;2022-08-25T04:29:56;17.10;98.00
41985;DHT22;28319;48.116;10.818;2022-08-25T04:32:23;17.10;98.10
41985;DHT22;28319;48.116;10.818;2022-08-25T04:34:50;17.10;98.10
41985;DHT22;28319;48.116;10.818;2022-08-25T04:37:16;17.10;98.20
41985;DHT22;28319;48.116;10.818;2022-08-25T04:39:44;17.10;98.00
41985;DHT22;28319;48.116;10.818;2022-08-25T04:42:10;17.10;97.80
41985;DHT22;28319;48.116;10.818;2022-08-25T04:44:39;17.10;97.80
41985;DHT22;28319;48.116;10.818;2022-08-25T04:47:06;17.00;98.00
41985;DHT22;28319;48.116;10.818;2022-08-25T04:49:34;16.90;98.50
41985;DHT22;28319;48.116;10.818;2022-08-25T04:52:01;16.90;97.90
41985;DHT22;28319;48.116;10.818;2022-08-25T04:54:28;17.00;98.00
41985;DHT22;28319;48.116;10.818;2022-08-25T04:56:55;17.00;98.00
41985;DHT22;28319;48.116;10.818;2022-08-25T04:59:22;16.80;99.00
41985;DHT22;28319;48.116;10.818;2022-08-25T05:01:50;16.70;98.70
41985;DHT22;28319;48.116;10.818;2022-08-25T05:04:20;16.30;99.40
41985;DHT22;28319;48.116;10.818;2022-08-25T05:06:47;16.60;99.00
41985;DHT22;28319;48.116;10.818;2022-08-25T05:09:14;16.70;98.50
41985;DHT22;28319;48.116;10.818;2022-08-25T05:11:41;16.80;98.40
41985;DHT22;28319;48.116;10.818;2022-08-25T05:14:08;16.70;99.90
41985;DHT22;28319;48.116;10.818;2022-08-25T05:16:37;16.70;98.80
41985;DHT22;28319;48.116;10.818;2022-08-25T05:19:06;16.70;98.80
41985;DHT22;28319;48.116;10.818;2022-08-25T05:21:33;16.80;98.70
41985;DHT22;28319;48.116;10.818;2022-08-25T05:24:02;16.80;98.60
41985;DHT22;28319;48.116;10.818;2022-08-25T05:26:30;16.80;98.90
41985;DHT22;28319;48.116;10.818;2022-08-25T05:28:59;16.90;98.40
41985;DHT22;28319;48.116;10.818;2022-08-25T05:31:28;17.00;98.30
41985;DHT22;28319;48.116;10.818;2022-08-25T05:33:56;16.90;98.20
41985;DHT22;28319;48.116;10.818;2022-08-25T05:36:26;17.00;99.30
41985;DHT22;28319;48.116;10.818;2022-08-25T05:38:54;17.00;98.80
41985;DHT22;28319;48.116;10.818;2022-08-25T05:41:24;17.00;98.80
41985;DHT22;28319;48.116;10.818;2022-08-25T05:43:51;17.10;98.90
41985;DHT22;28319;48.116;10.818;2022-08-25T05:46:19;17.00;99.10
41985;DHT22;28319;48.116;10.818;2022-08-25T05:48:47;17.00;99.10
41985;DHT22;28319;48.116;10.818;2022-08-25T05:51:15;17.00;98.70
41985;DHT22;28319;48.116;10.818;2022-08-25T05:53:45;17.10;98.80
41985;DHT22;28319;48.116;10.818;2022-08-25T05:56:13;17.10;98.80
41985;DHT22;28319;48.116;10.818;2022-08-25T05:58:41;17.10;99.00
41985;DHT22;28319;48.116;10.818;2022-08-25T06:01:09;17.20;98.50
41985;DHT22;28319;48.116;10.818;2022-08-25T06:03:53;17.20;99.90
41985;DHT22;28319;48.116;10.818;2022-08-25T06:06:21;17.00;99.70
41985;DHT22;28319;48.116;10.818;2022-08-25T06:08:50;17.20;99.90
41985;DHT22;28319;48.116;10.818;2022-08-25T06:11:18;17.20;99.60
41985;DHT22;28319;48.116;10.818;2022-08-25T06:13:45;17.20;99.90
41985;DHT22;28319;48.116;10.818;2022-08-25T06:16:12;17.10;99.90
41985;DHT22;28319;48.116;10.818;2022-08-25T06:18:39;17.00;99.90
41985;DHT22;28319;48.116;10.818;2022-08-25T06:21:08;17.10;99.90
41985;DHT22;28319;48.116;10.818;2022-08-25T06:23:36;17.20;99.90
41985;DHT22;28319;48.116;10.818;2022-08-25T06:26:05;17.20;99.90
41985;DHT22;28319;48.116;10.818;2022-08-25T06:28:32;17.20;99.90
41985;DHT22;28319;48.116;10.818;2022-08-25T06:30:59;17.30;99.90
41985;DHT22;28319;48.116;10.818;2022-08-25T06:33:26;17.30;99.90
41985;DHT22;28319;48.116;10.818;2022-08-25T06:35:54;17.30;99.90
41985;DHT22;28319;48.116;10.818;2022-08-25T06:38:21;17.40;99.90
41985;DHT22;28319;48.116;10.818;2022-08-25T06:40:49;17.50;99.90
41985;DHT22;28319;48.116;10.818;2022-08-25T06:43:18;17.50;99.90
41985;DHT22;28319;48.116;10.818;2022-08-25T06:45:45;17.50;99.90
41985;DHT22;28319;48.116;10.818;2022-08-25T06:48:13;17.60;99.90
41985;DHT22;28319;48.116;10.818;2022-08-25T06:50:40;17.60;99.90
41985;DHT22;28319;48.116;10.818;2022-08-25T06:53:08;17.70;99.90
41985;DHT22;28319;48.116;10.818;2022-08-25T06:55:35;17.80;99.90
41985;DHT22;28319;48.116;10.818;2022-08-25T06:58:02;17.80;99.90
41985;DHT22;28319;48.116;10.818;2022-08-25T07:00:31;17.90;99.90
41985;DHT22;28319;48.116;10.818;2022-08-25T07:02:58;18.00;99.90
41985;DHT22;28319;48.116;10.818;2022-08-25T07:05:26;18.00;99.90
41985;DHT22;28319;48.116;10.818;2022-08-25T07:07:53;18.00;99.90
41985;DHT22;28319;48.116;10.818;2022-08-25T07:10:20;18.00;99.90
41985;DHT22;28319;48.116;10.818;2022-08-25T07:12:47;18.10;99.90
41985;DHT22;28319;48.116;10.818;2022-08-25T07:15:15;18.20;99.90
41985;DHT22;28319;48.116;10.818;2022-08-25T07:17:43;18.20;99.90
41985;DHT22;28319;48.116;10.818;2022-08-25T07:20:11;18.20;99.90
41985;DHT22;28319;48.116;10.818;2022-08-25T07:22:38;18.20;99.90
41985;DHT22;28319;48.116;10.818;2022-08-25T07:25:06;18.20;99.90
41985;DHT22;28319;48.116;10.818;2022-08-25T07:27:33;18.30;99.90
41985;DHT22;28319;48.116;10.818;2022-08-25T07:30:00;18.40;99.90
41985;DHT22;28319;48.116;10.818;2022-08-25T07:32:27;18.50;99.90
41985;DHT22;28319;48.116;10.818;2022-08-25T07:34:55;18.50;99.90
41985;DHT22;28319;48.116;10.818;2022-08-25T07:37:40;18.60;99.90
41985;DHT22;28319;48.116;10.818;2022-08-25T07:40:10;18.70;99.90
41985;DHT22;28319;48.116;10.818;2022-08-25T07:42:38;18.70;99.90
41985;DHT22;28319;48.116;10.818;2022-08-25T07:45:06;18.80;99.90
41985;DHT22;28319;48.116;10.818;2022-08-25T07:47:34;18.80;99.90
41985;DHT22;28319;48.116;10.818;2022-08-25T07:50:03;18.90;99.90
41985;DHT22;28319;48.116;10.818;2022-08-25T07:52:30;19.00;99.90
41985;DHT22;28319;48.116;10.818;2022-08-25T07:54:58;19.10;99.90
41985;DHT22;28319;48.116;10.818;2022-08-25T07:57:25;19.10;99.90
41985;DHT22;28319;48.116;10.818;2022-08-25T07:59:52;19.20;99.90
41985;DHT22;28319;48.116;10.818;2022-08-25T08:02:19;19.20;99.90
41985;DHT22;28319;48.116;10.818;2022-08-25T08:04:48;19.30;99.90
41985;DHT22;28319;48.116;10.818;2022-08-25T08:07:18;19.30;99.90
41985;DHT22;28319;48.116;10.818;2022-08-25T08:09:46;19.40;99.90
41985;DHT22;28319;48.116;10.818;2022-08-25T08:12:13;19.40;99.90
41985;DHT22;28319;48.116;10.818;2022-08-25T08:14:40;19.40;99.90
41985;DHT22;28319;48.116;10.818;2022-08-25T08:17:08;19.50;99.90
41985;DHT22;28319;48.116;10.818;2022-08-25T08:19:36;19.70;99.90
41985;DHT22;28319;48.116;10.818;2022-08-25T08:22:04;19.70;99.90
41985;DHT22;28319;48.116;10.818;2022-08-25T08:24:33;19.80;99.90
41985;DHT22;28319;48.116;10.818;2022-08-25T08:27:04;19.90;99.90
41985;DHT22;28319;48.116;10.818;2022-08-25T08:29:31;20.00;99.90
41985;DHT22;28319;48.116;10.818;2022-08-25T08:31:58;20.10;99.90
41985;DHT22;28319;48.116;10.818;2022-08-25T08:34:25;20.20;99.90
41985;DHT22;28319;48.116;10.818;2022-08-25T08:36:52;20.20;99.90
41985;DHT22;28319;48.116;10.818;2022-08-25T08:39:19;20.30;99.90
41985;DHT22;28319;48.116;10.818;2022-08-25T08:41:56;20.40;99.90
41985;DHT22;28319;48.116;10.818;2022-08-25T08:44:55;20.40;99.90
41985;DHT22;28319;48.116;10.818;2022-08-25T08:47:31;20.50;99.90
41985;DHT22;28319;48.116;10.818;2022-08-25T08:50:05;20.60;99.90
41985;DHT22;28319;48.116;10.818;2022-08-25T08:52:38;20.60;99.90
41985;DHT22;28319;48.116;10.818;2022-08-25T08:55:12;20.70;99.90
41985;DHT22;28319;48.116;10.818;2022-08-25T08:57:46;20.80;99.90
41985;DHT22;28319;48.116;10.818;2022-08-25T09:00:15;20.80;99.90
41985;DHT22;28319;48.116;10.818;2022-08-25T09:02:48;20.90;99.90
41985;DHT22;28319;48.116;10.818;2022-08-25T09:05:19;21.00;99.90
41985;DHT22;28319;48.116;10.818;2022-08-25T09:07:48;21.10;99.90
41985;DHT22;28319;48.116;10.818;2022-08-25T09:10:17;21.30;99.90
41985;DHT22;28319;48.116;10.818;2022-08-25T09:12:52;21.30;99.90
41985;DHT22;28319;48.116;10.818;2022-08-25T09:15:38;21.40;99.90
41985;DHT22;28319;48.116;10.818;2022-08-25T09:18:30;21.40;99.90
41985;DHT22;28319;48.116;10.818;2022-08-25T09:21:07;21.70;99.90
41985;DHT22;28319;48.116;10.818;2022-08-25T09:23:47;21.90;99.90
41985;DHT22;28319;48.116;10.818;2022-08-25T09:26:27;22.00;99.90
41985;DHT22;28319;48.116;10.818;2022-08-25T09:29:01;22.20;99.90
41985;DHT22;28319;48.116;10.818;2022-08-25T09:31:31;22.40;99.90
41985;DHT22;28319;48.116;10.818;2022-08-25T09:34:02;22.40;99.70
41985;DHT22;28319;48.116;10.818;2022-08-25T09:36:30;22.60;99.20
41985;DHT22;28319;48.116;10.818;2022-08-25T09:38:58;22.70;98.60
41985;DHT22;28319;48.116;10.818;2022-08-25T09:41:44;22.80;98.70
41985;DHT22;28319;48.116;10.818;2022-08-25T09:44:23;22.90;98.40
41985;DHT22;28319;48.116;10.818;2022-08-25T09:47:00;23.00;98.60
41985;DHT22;28319;48.116;10.818;2022-08-25T09:49:34;23.10;98.50
41985;DHT22;28319;48.116;10.818;2022-08-25T09:52:29;23.20;98.40
41985;DHT22;28319;48.116;10.818;2022-08-25T09:54:59;23.50;98.00
41985;DHT22;28319;48.116;10.818;2022-08-25T09:57:31;23.70;98.50
41985;DHT22;28319;48.116;10.818;2022-08-25T10:00:19;24.00;97.10
41985;DHT22;28319;48.116;10.818;2022-08-25T10:03:04;24.20;96.80
41985;DHT22;28319;48.116;10.818;2022-08-25T10:05:33;24.40;96.60
41985;DHT22;28319;48.116;10.818;2022-08-25T10:08:03;24.50;96.70
41985;DHT22;28319;48.116;10.818;2022-08-25T10:10:32;24.50;96.10
41985;DHT22;28319;48.116;10.818;2022-08-25T10:13:00;24.70;95.90
41985;DHT22;28319;48.116;10.818;2022-08-25T10:15:31;24.80;96.20
41985;DHT22;28319;48.116;10.818;2022-08-25T10:18:22;25.00;96.00
41985;DHT22;28319;48.116;10.818;2022-08-25T10:21:08;25.20;95.00
41985;DHT22;28319;48.116;10.818;2022-08-25T10:23:38;25.40;96.10
41985;DHT22;28319;48.116;10.818;2022-08-25T10:26:12;25.50;95.30
41985;DHT22;28319;48.116;10.818;2022-08-25T10:28:46;25.60;94.50
41985;DHT22;28319;48.116;10.818;2022-08-25T10:31:22;25.70;94.20
41985;DHT22;28319;48.116;10.818;2022-08-25T10:34:01;25.60;94.00
41985;DHT22;28319;48.116;10.818;2022-08-25T10:36:39;25.80;94.00
41985;DHT22;28319;48.116;10.818;2022-08-25T10:39:20;25.90;94.30
41985;DHT22;28319;48.116;10.818;2022-08-25T10:41:59;26.00;93.50
41985;DHT22;28319;48.116;10.818;2022-08-25T10:44:33;25.90;94.10
41985;DHT22;28319;48.116;10.818;2022-08-25T10:47:52;26.10;93.60
41985;DHT22;28319;48.116;10.818;2022-08-25T10:50:28;26.50;93.40
41985;DHT22;28319;48.116;10.818;2022-08-25T10:53:26;26.50;92.80
41985;DHT22;28319;48.116;10.818;2022-08-25T10:56:04;26.70;92.40
41985;DHT22;28319;48.116;10.818;2022-08-25T11:01:43;27.00;92.90
41985;DHT22;28319;48.116;10.818;2022-08-25T11:04:17;27.00;92.00
41985;DHT22;28319;48.116;10.818;2022-08-25T11:06:51;26.90;92.30
41985;DHT22;28319;48.116;10.818;2022-08-25T11:09:23;27.20;92.30
41985;DHT22;28319;48.116;10.818;2022-08-25T11:11:54;27.30;92.10
41985;DHT22;28319;48.116;10.818;2022-08-25T11:14:24;27.40;92.40
41985;DHT22;28319;48.116;10.818;2022-08-25T11:16:58;27.60;92.30
41985;DHT22;28319;48.116;10.818;2022-08-25T11:19:29;27.80;91.60
41985;DHT22;28319;48.116;10.818;2022-08-25T11:22:11;27.80;91.10
41985;DHT22;28319;48.116;10.818;2022-08-25T11:24:54;27.70;90.80
41985;DHT22;28319;48.116;10.818;2022-08-25T11:27:30;27.60;91.40
41985;DHT22;28319;48.116;10.818;2022-08-25T11:30:03;27.60;91.50
41985;DHT22;28319;48.116;10.818;2022-08-25T11:35:09;28.20;91.80
41985;DHT22;28319;48.116;10.818;2022-08-25T11:37:43;28.30;90.60
41985;DHT22;28319;48.116;10.818;2022-08-25T11:40:25;28.50;91.00
41985;DHT22;28319;48.116;10.818;2022-08-25T11:43:01;28.60;91.30
41985;DHT22;28319;48.116;10.818;2022-08-25T11:45:45;28.70;90.20
41985;DHT22;28319;48.116;10.818;2022-08-25T11:48:24;28.60;88.10
41985;DHT22;28319;48.116;10.818;2022-08-25T11:50:58;28.40;88.50
41985;DHT22;28319;48.116;10.818;2022-08-25T11:53:29;28.50;90.20
41985;DHT22;28319;48.116;10.818;2022-08-25T11:55:58;28.80;90.60
41985;DHT22;28319;48.116;10.818;2022-08-25T11:58:44;28.90;87.40
41985;DHT22;28319;48.116;10.818;2022-08-25T12:04:15;28.80;87.40
41985;DHT22;28319;48.116;10.818;2022-08-25T12:13:39;29.20;87.50
41985;DHT22;28319;48.116;10.818;2022-08-25T12:16:31;29.40;87.00
41985;DHT22;28319;48.116;10.818;2022-08-25T12:19:25;29.30;88.60
41985;DHT22;28319;48.116;10.818;2022-08-25T12:21:53;29.30;87.90
41985;DHT22;28319;48.116;10.818;2022-08-25T12:24:36;29.50;87.20
41985;DHT22;28319;48.116;10.818;2022-08-25T12:27:21;29.80;86.20
41985;DHT22;28319;48.116;10.818;2022-08-25T12:29:56;29.90;84.60
41985;DHT22;28319;48.116;10.818;2022-08-25T12:32:45;29.60;84.70
41985;DHT22;28319;48.116;10.818;2022-08-25T12:35:28;29.70;86.00
41985;DHT22;28319;48.116;10.818;2022-08-25T12:38:01;29.80;85.50
41985;DHT22;28319;48.116;10.818;2022-08-25T12:40:33;29.90;85.20
41985;DHT22;28319;48.116;10.818;2022-08-25T12:43:10;30.20;84.50
41985;DHT22;28319;48.116;10.818;2022-08-25T12:45:42;30.20;86.50
41985;DHT22;28319;48.116;10.818;2022-08-25T12:48:52;30.40;84.20
41985;DHT22;28319;48.116;10.818;2022-08-25T12:51:21;30.30;83.50
41985;DHT22;28319;48.116;10.818;2022-08-25T12:53:51;30.00;83.30
41985;DHT22;28319;48.116;10.818;2022-08-25T12:56:26;30.00;84.20
41985;DHT22;28319;48.116;10.818;2022-08-25T12:59:04;29.90;82.70
41985;DHT22;28319;48.116;10.818;2022-08-25T13:01:49;30.00;82.80
41985;DHT22;28319;48.116;10.818;2022-08-25T13:04:51;29.90;83.10
41985;DHT22;28319;48.116;10.818;2022-08-25T13:07:32;30.30;84.50
41985;DHT22;28319;48.116;10.818;2022-08-25T13:10:20;30.30;82.70
41985;DHT22;28319;48.116;10.818;2022-08-25T13:12:51;30.30;84.50
41985;DHT22;28319;48.116;10.818;2022-08-25T13:15:32;30.10;81.70
41985;DHT22;28319;48.116;10.818;2022-08-25T13:18:21;30.40;83.50
41985;DHT22;28319;48.116;10.818;2022-08-25T13:20:52;30.50;80.10
41985;DHT22;28319;48.116;10.818;2022-08-25T13:23:25;30.10;78.30
41985;DHT22;28319;48.116;10.818;2022-08-25T13:25:53;30.00;80.00
41985;DHT22;28319;48.116;10.818;2022-08-25T13:28:28;30.20;83.30
41985;DHT22;28319;48.116;10.818;2022-08-25T13:30:57;30.10;79.80
41985;DHT22;28319;48.116;10.818;2022-08-25T13:33:26;30.00;82.00
41985;DHT22;28319;48.116;10.818;2022-08-25T13:35:55;29.90;81.50
41985;DHT22;28319;48.116;10.818;2022-08-25T13:38:37;30.00;81.20
41985;DHT22;28319;48.116;10.818;2022-08-25T13:41:05;30.40;82.60
41985;DHT22;28319;48.116;10.818;2022-08-25T13:43:34;30.20;80.10
41985;DHT22;28319;48.116;10.818;2022-08-25T13:46:01;30.30;81.70
41985;DHT22;28319;48.116;10.818;2022-08-25T13:48:35;30.50;80.50
41985;DHT22;28319;48.116;10.818;2022-08-25T13:51:08;30.40;80.70
41985;DHT22;28319;48.116;10.818;2022-08-25T13:53:36;30.50;78.00
41985;DHT22;28319;48.116;10.818;2022-08-25T13:56:04;30.30;77.30
41985;DHT22;28319;48.116;10.818;2022-08-25T13:58:34;30.20;79.80
41985;DHT22;28319;48.116;10.818;2022-08-25T14:01:07;30.10;79.70
41985;DHT22;28319;48.116;10.818;2022-08-25T14:03:38;30.10;78.00
41985;DHT22;28319;48.116;10.818;2022-08-25T14:06:09;29.70;78.10
41985;DHT22;28319;48.116;10.818;2022-08-25T14:08:38;29.80;80.40
41985;DHT22;28319;48.116;10.818;2022-08-25T14:11:08;29.80;79.40
41985;DHT22;28319;48.116;10.818;2022-08-25T14:13:36;29.50;80.10
41985;DHT22;28319;48.116;10.818;2022-08-25T14:16:10;29.80;78.80
41985;DHT22;28319;48.116;10.818;2022-08-25T14:18:46;29.70;79.70
41985;DHT22;28319;48.116;10.818;2022-08-25T14:21:14;29.60;81.10
41985;DHT22;28319;48.116;10.818;2022-08-25T14:23:42;29.70;80.60
41985;DHT22;28319;48.116;10.818;2022-08-25T14:26:10;29.50;80.20
41985;DHT22;28319;48.116;10.818;2022-08-25T14:28:38;29.50;79.10
41985;DHT22;28319;48.116;10.818;2022-08-25T14:31:07;29.60;80.50
41985;DHT22;28319;48.116;10.818;2022-08-25T14:33:37;29.70;82.30
41985;DHT22;28319;48.116;10.818;2022-08-25T14:36:07;29.80;80.10
41985;DHT22;28319;48.116;10.818;2022-08-25T14:38:35;29.70;78.70
41985;DHT22;28319;48.116;10.818;2022-08-25T14:41:04;29.60;79.20
41985;DHT22;28319;48.116;10.818;2022-08-25T14:43:32;29.40;79.30
41985;DHT22;28319;48.116;10.818;2022-08-25T14:46:00;29.20;79.20
41985;DHT22;28319;48.116;10.818;2022-08-25T14:48:32;29.20;81.40
41985;DHT22;28319;48.116;10.818;2022-08-25T14:51:00;29.30;80.50
41985;DHT22;28319;48.116;10.818;2022-08-25T14:53:31;29.40;80.50
41985;DHT22;28319;48.116;10.818;2022-08-25T14:55:58;29.40;80.10
41985;DHT22;28319;48.116;10.818;2022-08-25T14:58:25;29.50;81.20
41985;DHT22;28319;48.116;10.818;2022-08-25T15:00:53;29.50;78.70
41985;DHT22;28319;48.116;10.818;2022-08-25T15:03:29;29.30;77.80
41985;DHT22;28319;48.116;10.818;2022-08-25T15:05:57;29.20;78.40
41985;DHT22;28319;48.116;10.818;2022-08-25T15:08:25;29.10;78.90
41985;DHT22;28319;48.116;10.818;2022-08-25T15:11:14;29.10;80.70
41985;DHT22;28319;48.116;10.818;2022-08-25T15:13:42;29.10;82.30
41985;DHT22;28319;48.116;10.818;2022-08-25T15:16:12;29.20;81.40
41985;DHT22;28319;48.116;10.818;2022-08-25T15:18:42;29.20;80.30
41985;DHT22;28319;48.116;10.818;2022-08-25T15:21:09;29.00;78.80
41985;DHT22;28319;48.116;10.818;2022-08-25T15:23:38;29.10;81.10
41985;DHT22;28319;48.116;10.818;2022-08-25T15:26:05;29.00;77.40
41985;DHT22;28319;48.116;10.818;2022-08-25T15:28:42;29.00;79.70
41985;DHT22;28319;48.116;10.818;2022-08-25T15:31:10;29.10;81.40
41985;DHT22;28319;48.116;10.818;2022-08-25T15:33:38;29.10;79.10
41985;DHT22;28319;48.116;10.818;2022-08-25T15:36:07;29.10;79.20
41985;DHT22;28319;48.116;10.818;2022-08-25T15:38:36;29.10;80.30
41985;DHT22;28319;48.116;10.818;2022-08-25T15:41:03;28.80;77.80
41985;DHT22;28319;48.116;10.818;2022-08-25T15:43:31;28.60;78.20
41985;DHT22;28319;48.116;10.818;2022-08-25T15:46:02;28.50;77.90
41985;DHT22;28319;48.116;10.818;2022-08-25T15:48:31;28.30;79.60
41985;DHT22;28319;48.116;10.818;2022-08-25T15:50:58;28.40;80.30
41985;DHT22;28319;48.116;10.818;2022-08-25T15:53:26;28.50;78.50
41985;DHT22;28319;48.116;10.818;2022-08-25T15:55:55;28.20;78.30